Terminal Aerodrome Forecast
Issued by NWS Louisville, KY

Home | Current Version | Previous Version | Text Only | Print | Product List | Glossary On
Versions: 1 2 3 4 5 6 7 8 9 10 11 12 13 14 15 16 17 18 19 20 21
000
FTUS43 KLMK 170525
TAFSDF
TAF
KSDF 170525Z 1706/1812 08003KT P6SM BKN018
     FM170800 11004KT P6SM BKN015
     FM171600 16007KT P6SM SCT015 SCT150
     FM180100 17012KT P6SM BKN120 WS020/20045KT
     FM180700 19014KT P6SM VCSH BKN080 WS020/20052KT=

USA.gov is the U.S. government's official web portal to all federal, state and local government web resources and services.